This is the latest recevied weather packets stored in our database for station/object M0JUI-1. If no packets are shown the sender has not sent any weather packets the latest 1 day(s).
| Time | Temp. | Humidity | Pressure | Rain* | Wind** | Luminosity | Snow |
|---|---|---|---|---|---|---|---|
| 1778060151 | 9.44° C | 99% | 1015.6 hPa | 0 mm | - | 175 W/m² | - |
| 1778059851 | 10° C | 99% | 1015.7 hPa | 0 mm | - | 102 W/m² | - |
| 1778059540 | 10.56° C | 99% | 1015.8 hPa | 0 mm | - | 631 W/m² | - |
| 1778058340 | 10.56° C | 99% | 1015.6 hPa | 0 mm | - | 599 W/m² | - |
| 1778057739 | 10° C | 99% | 1015.8 hPa | 0 mm | - | 593 W/m² | - |
| 1778056840 | 8.33° C | 1% | 1015.8 hPa | 0 mm | - | 317 W/m² | - |
| 1778055939 | 8.33° C | 1% | 1015.8 hPa | 0 mm | - | 412 W/m² | - |
| 1778055640 | 8.33° C | 1% | 1015.9 hPa | 0 mm | - | 370 W/m² | - |
| 1778055029 | 7.78° C | 1% | 1016 hPa | 0 mm | - | 117 W/m² | - |
| 1778054128 | 7.78° C | 1% | 1015.9 hPa | 0 mm | - | 158 W/m² | - |
| 1778053228 | 7.78° C | 2% | 1015.9 hPa | 0 mm | - | 174 W/m² | - |
| 1778052927 | 7.78° C | 3% | 1015.9 hPa | 0 mm | - | 233 W/m² | - |
| 1778052028 | 7.22° C | 2% | 1015.7 hPa | 0 mm | - | 170 W/m² | - |
| 1778051729 | 7.22° C | 2% | 1015.8 hPa | 0 mm | - | 182 W/m² | - |
| 1778051430 | 7.22° C | 2% | 1015.9 hPa | 0 mm | - | 201 W/m² | - |
| 1778051127 | 7.22° C | 2% | 1015.9 hPa | 0 mm | - | 172 W/m² | - |
| 1778050832 | 7.22° C | 3% | 1015.9 hPa | 0 mm | - | 161 W/m² | - |
| 1778050516 | 6.67° C | 3% | 1015.7 hPa | 0 mm | - | 149 W/m² | - |
| 1778050219 | 6.67° C | 4% | 1015.8 hPa | 0 mm | - | 138 W/m² | - |
| 1778049915 | 6.67° C | 4% | 1015.7 hPa | 0 mm | - | 124 W/m² | - |
| 1778049304 | 6.67° C | 3% | 1015.7 hPa | 0 mm | - | 108 W/m² | - |
| 1778049009 | 6.67° C | 3% | 1015.8 hPa | 0 mm | - | 98 W/m² | - |
| 1778048691 | 6.67° C | 3% | 1015.8 hPa | 0 mm | - | 88 W/m² | - |
| 1778048391 | 6.11° C | 4% | 1015.6 hPa | 0 mm | - | 81 W/m² | - |
| 1778048091 | 6.67° C | 4% | 1015.6 hPa | 0 mm | - | 72 W/m² | - |
* Rain latest hour (hover to see other rain measurements)
** Current wind speed in m/s (hover to see current wind gust speed)